sensor_id;sensor_type;location;lat;lon;timestamp;pressure;altitude;pressure_sealevel;temperature;humidity
39793;BME280;26080;42.264;24.536;2022-07-11T00:02:10;99076.53;;;16.38;100.00
39793;BME280;26080;42.264;24.536;2022-07-11T00:04:40;99079.41;;;16.35;100.00
39793;BME280;26080;42.264;24.536;2022-07-11T00:07:06;99060.97;;;16.22;100.00
39793;BME280;26080;42.264;24.536;2022-07-11T00:09:32;99080.91;;;16.26;100.00
39793;BME280;26080;42.264;24.536;2022-07-11T00:11:58;99070.94;;;16.19;100.00
39793;BME280;26080;42.264;24.536;2022-07-11T00:14:24;99079.19;;;16.14;100.00
39793;BME280;26080;42.264;24.536;2022-07-11T00:16:51;99073.28;;;16.11;100.00
39793;BME280;26080;42.264;24.536;2022-07-11T00:19:17;99075.81;;;16.12;100.00
39793;BME280;26080;42.264;24.536;2022-07-11T00:21:43;99079.88;;;16.05;100.00
39793;BME280;26080;42.264;24.536;2022-07-11T00:24:09;99079.88;;;16.05;100.00
39793;BME280;26080;42.264;24.536;2022-07-11T00:26:35;99074.78;;;16.02;100.00
39793;BME280;26080;42.264;24.536;2022-07-11T00:29:00;99075.75;;;16.01;100.00
39793;BME280;26080;42.264;24.536;2022-07-11T00:31:26;99080.25;;;16.12;100.00
39793;BME280;26080;42.264;24.536;2022-07-11T00:33:51;99066.50;;;16.19;100.00
39793;BME280;26080;42.264;24.536;2022-07-11T00:36:17;99091.06;;;16.44;100.00
39793;BME280;26080;42.264;24.536;2022-07-11T00:38:42;99086.63;;;16.44;100.00
39793;BME280;26080;42.264;24.536;2022-07-11T00:41:08;99088.91;;;16.38;100.00
39793;BME280;26080;42.264;24.536;2022-07-11T00:43:36;99102.34;;;16.35;100.00
39793;BME280;26080;42.264;24.536;2022-07-11T00:46:02;99096.06;;;16.24;100.00
39793;BME280;26080;42.264;24.536;2022-07-11T00:48:29;99088.00;;;16.26;100.00
39793;BME280;26080;42.264;24.536;2022-07-11T00:50:54;99096.59;;;16.41;100.00
39793;BME280;26080;42.264;24.536;2022-07-11T00:53:22;99095.91;;;16.50;100.00
39793;BME280;26080;42.264;24.536;2022-07-11T00:55:47;99095.56;;;16.54;100.00
39793;BME280;26080;42.264;24.536;2022-07-11T00:58:13;99097.13;;;16.57;100.00
39793;BME280;26080;42.264;24.536;2022-07-11T01:00:40;99097.53;;;16.64;100.00
39793;BME280;26080;42.264;24.536;2022-07-11T01:03:07;99089.56;;;16.52;100.00
39793;BME280;26080;42.264;24.536;2022-07-11T01:05:32;99103.66;;;16.64;100.00
39793;BME280;26080;42.264;24.536;2022-07-11T01:07:58;99110.19;;;16.71;100.00
39793;BME280;26080;42.264;24.536;2022-07-11T01:10:23;99101.53;;;16.69;100.00
39793;BME280;26080;42.264;24.536;2022-07-11T01:12:49;99114.97;;;16.66;100.00
39793;BME280;26080;42.264;24.536;2022-07-11T01:15:15;99117.41;;;16.69;100.00
39793;BME280;26080;42.264;24.536;2022-07-11T01:17:41;99127.00;;;16.70;100.00
39793;BME280;26080;42.264;24.536;2022-07-11T01:20:07;99121.84;;;16.69;100.00
39793;BME280;26080;42.264;24.536;2022-07-11T01:22:40;99121.84;;;16.69;100.00
39793;BME280;26080;42.264;24.536;2022-07-11T01:25:09;99092.47;;;16.61;100.00
39793;BME280;26080;42.264;24.536;2022-07-11T01:27:35;99112.75;;;16.73;100.00
39793;BME280;26080;42.264;24.536;2022-07-11T01:30:01;99115.28;;;16.74;100.00
39793;BME280;26080;42.264;24.536;2022-07-11T01:32:26;99121.97;;;16.67;100.00
39793;BME280;26080;42.264;24.536;2022-07-11T01:34:52;99119.59;;;16.51;100.00
39793;BME280;26080;42.264;24.536;2022-07-11T01:37:17;99115.44;;;16.36;100.00
39793;BME280;26080;42.264;24.536;2022-07-11T01:39:43;99112.97;;;16.22;100.00
39793;BME280;26080;42.264;24.536;2022-07-11T01:42:09;99122.63;;;16.10;100.00
39793;BME280;26080;42.264;24.536;2022-07-11T01:44:34;99119.81;;;16.00;100.00
39793;BME280;26080;42.264;24.536;2022-07-11T01:47:00;99117.75;;;15.93;100.00
39793;BME280;26080;42.264;24.536;2022-07-11T01:49:25;99116.72;;;15.83;100.00
39793;BME280;26080;42.264;24.536;2022-07-11T01:51:56;99114.94;;;15.70;100.00
39793;BME280;26080;42.264;24.536;2022-07-11T01:54:21;99116.13;;;15.66;100.00
39793;BME280;26080;42.264;24.536;2022-07-11T01:56:47;99111.25;;;15.60;100.00
39793;BME280;26080;42.264;24.536;2022-07-11T01:59:13;99113.81;;;15.49;100.00
39793;BME280;26080;42.264;24.536;2022-07-11T02:01:38;99084.16;;;15.20;100.00
39793;BME280;26080;42.264;24.536;2022-07-11T02:04:04;99090.19;;;15.09;100.00
39793;BME280;26080;42.264;24.536;2022-07-11T02:06:31;99117.81;;;15.17;100.00
39793;BME280;26080;42.264;24.536;2022-07-11T02:08:56;99110.25;;;15.12;100.00
39793;BME280;26080;42.264;24.536;2022-07-11T02:11:22;99116.03;;;15.17;100.00
39793;BME280;26080;42.264;24.536;2022-07-11T02:13:49;99108.97;;;15.18;100.00
39793;BME280;26080;42.264;24.536;2022-07-11T02:16:15;99118.03;;;15.26;100.00
39793;BME280;26080;42.264;24.536;2022-07-11T02:18:40;99116.47;;;15.36;100.00
39793;BME280;26080;42.264;24.536;2022-07-11T02:21:06;99116.34;;;15.38;100.00
39793;BME280;26080;42.264;24.536;2022-07-11T02:23:32;99126.34;;;15.33;100.00
39793;BME280;26080;42.264;24.536;2022-07-11T02:25:57;99124.38;;;15.24;100.00
39793;BME280;26080;42.264;24.536;2022-07-11T02:28:23;99128.38;;;15.17;100.00
39793;BME280;26080;42.264;24.536;2022-07-11T02:30:48;99135.56;;;15.15;100.00
39793;BME280;26080;42.264;24.536;2022-07-11T02:33:14;99136.06;;;15.07;100.00
39793;BME280;26080;42.264;24.536;2022-07-11T02:35:44;99129.84;;;14.95;100.00
39793;BME280;26080;42.264;24.536;2022-07-11T02:38:11;99138.28;;;14.88;100.00
39793;BME280;26080;42.264;24.536;2022-07-11T02:40:36;99140.81;;;14.89;100.00
39793;BME280;26080;42.264;24.536;2022-07-11T02:43:02;99144.38;;;14.75;100.00
39793;BME280;26080;42.264;24.536;2022-07-11T02:45:28;99145.84;;;14.67;100.00
39793;BME280;26080;42.264;24.536;2022-07-11T02:47:53;99146.03;;;14.64;100.00
39793;BME280;26080;42.264;24.536;2022-07-11T02:50:18;99152.59;;;14.71;100.00
39793;BME280;26080;42.264;24.536;2022-07-11T02:52:44;99154.69;;;14.78;100.00
39793;BME280;26080;42.264;24.536;2022-07-11T02:55:11;99156.09;;;14.84;100.00
39793;BME280;26080;42.264;24.536;2022-07-11T02:57:37;99156.97;;;14.97;100.00
39793;BME280;26080;42.264;24.536;2022-07-11T03:00:05;99161.81;;;15.16;100.00
39793;BME280;26080;42.264;24.536;2022-07-11T03:02:31;99163.22;;;15.22;100.00
39793;BME280;26080;42.264;24.536;2022-07-11T03:04:57;99156.66;;;15.40;100.00
39793;BME280;26080;42.264;24.536;2022-07-11T03:07:26;99163.09;;;15.61;100.00
39793;BME280;26080;42.264;24.536;2022-07-11T03:09:53;99168.25;;;15.76;100.00
39793;BME280;26080;42.264;24.536;2022-07-11T03:12:19;99159.81;;;15.83;100.00
39793;BME280;26080;42.264;24.536;2022-07-11T03:14:44;99177.31;;;15.97;100.00
39793;BME280;26080;42.264;24.536;2022-07-11T03:17:09;99171.91;;;15.98;100.00
39793;BME280;26080;42.264;24.536;2022-07-11T03:19:35;99162.31;;;15.97;100.00
39793;BME280;26080;42.264;24.536;2022-07-11T03:22:01;99168.84;;;16.05;100.00
39793;BME280;26080;42.264;24.536;2022-07-11T03:24:27;99178.72;;;16.14;100.00
39793;BME280;26080;42.264;24.536;2022-07-11T03:26:53;99176.75;;;16.17;100.00
39793;BME280;26080;42.264;24.536;2022-07-11T03:29:18;99198.75;;;16.29;100.00
39793;BME280;26080;42.264;24.536;2022-07-11T03:31:44;99197.03;;;16.41;100.00
39793;BME280;26080;42.264;24.536;2022-07-11T03:34:09;99195.53;;;16.49;100.00
39793;BME280;26080;42.264;24.536;2022-07-11T03:36:34;99180.56;;;16.61;100.00
39793;BME280;26080;42.264;24.536;2022-07-11T03:39:00;99177.13;;;16.72;100.00
39793;BME280;26080;42.264;24.536;2022-07-11T03:41:26;99174.56;;;16.59;100.00
39793;BME280;26080;42.264;24.536;2022-07-11T03:43:51;99199.19;;;16.83;100.00
39793;BME280;26080;42.264;24.536;2022-07-11T03:46:16;99204.44;;;17.07;100.00
39793;BME280;26080;42.264;24.536;2022-07-11T03:48:42;99210.34;;;17.57;100.00
39793;BME280;26080;42.264;24.536;2022-07-11T03:51:07;99210.88;;;17.85;100.00
39793;BME280;26080;42.264;24.536;2022-07-11T03:53:33;99215.94;;;18.53;100.00
39793;BME280;26080;42.264;24.536;2022-07-11T03:55:59;99207.03;;;19.60;94.13
39793;BME280;26080;42.264;24.536;2022-07-11T03:58:24;99209.97;;;20.37;87.44
39793;BME280;26080;42.264;24.536;2022-07-11T04:00:50;99206.94;;;20.52;86.54
39793;BME280;26080;42.264;24.536;2022-07-11T04:03:15;99212.88;;;21.04;84.29
39793;BME280;26080;42.264;24.536;2022-07-11T04:05:41;99221.28;;;21.28;82.26
39793;BME280;26080;42.264;24.536;2022-07-11T04:08:06;99211.53;;;21.66;80.97
39793;BME280;26080;42.264;24.536;2022-07-11T04:10:32;99212.53;;;21.92;79.41
39793;BME280;26080;42.264;24.536;2022-07-11T04:12:57;99212.38;;;22.31;77.65
39793;BME280;26080;42.264;24.536;2022-07-11T04:15:22;99212.16;;;22.69;75.97
39793;BME280;26080;42.264;24.536;2022-07-11T04:17:48;99216.97;;;22.84;75.15
39793;BME280;26080;42.264;24.536;2022-07-11T04:20:14;99213.41;;;22.93;73.54
39793;BME280;26080;42.264;24.536;2022-07-11T04:22:39;99214.91;;;22.77;73.78
39793;BME280;26080;42.264;24.536;2022-07-11T04:25:05;99213.00;;;23.23;72.56
39793;BME280;26080;42.264;24.536;2022-07-11T04:27:31;99194.09;;;23.43;71.04
39793;BME280;26080;42.264;24.536;2022-07-11T04:29:56;99207.31;;;23.70;68.93
39793;BME280;26080;42.264;24.536;2022-07-11T04:32:22;99206.88;;;23.83;69.07
39793;BME280;26080;42.264;24.536;2022-07-11T04:34:47;99216.16;;;23.97;68.07
39793;BME280;26080;42.264;24.536;2022-07-11T04:37:13;99203.03;;;24.19;66.85
39793;BME280;26080;42.264;24.536;2022-07-11T04:39:38;99218.56;;;24.42;66.02
39793;BME280;26080;42.264;24.536;2022-07-11T04:42:04;99202.88;;;24.55;65.75
39793;BME280;26080;42.264;24.536;2022-07-11T04:44:32;99218.81;;;24.81;62.60
39793;BME280;26080;42.264;24.536;2022-07-11T04:46:57;99217.84;;;25.06;62.66
39793;BME280;26080;42.264;24.536;2022-07-11T04:49:23;99214.81;;;25.50;60.88
39793;BME280;26080;42.264;24.536;2022-07-11T04:51:48;99221.16;;;25.57;60.38
39793;BME280;26080;42.264;24.536;2022-07-11T04:54:14;99221.47;;;25.87;57.63
39793;BME280;26080;42.264;24.536;2022-07-11T04:56:41;99226.69;;;25.56;58.50
39793;BME280;26080;42.264;24.536;2022-07-11T04:59:06;99220.91;;;25.99;57.09
39793;BME280;26080;42.264;24.536;2022-07-11T05:01:32;99227.50;;;25.89;57.04
39793;BME280;26080;42.264;24.536;2022-07-11T05:03:58;99228.84;;;25.93;56.50
39793;BME280;26080;42.264;24.536;2022-07-11T05:06:23;99216.94;;;25.87;56.65
39793;BME280;26080;42.264;24.536;2022-07-11T05:08:49;99229.22;;;25.49;57.31
39793;BME280;26080;42.264;24.536;2022-07-11T05:11:14;99231.00;;;25.97;54.73
39793;BME280;26080;42.264;24.536;2022-07-11T05:13:40;99237.06;;;25.83;56.06
39793;BME280;26080;42.264;24.536;2022-07-11T05:16:06;99216.59;;;25.90;54.76
39793;BME280;26080;42.264;24.536;2022-07-11T05:18:32;99231.47;;;26.01;55.35
39793;BME280;26080;42.264;24.536;2022-07-11T05:20:57;99236.53;;;25.88;55.64
39793;BME280;26080;42.264;24.536;2022-07-11T05:23:23;99232.91;;;25.64;55.01
39793;BME280;26080;42.264;24.536;2022-07-11T05:25:49;99235.94;;;25.37;59.61
39793;BME280;26080;42.264;24.536;2022-07-11T05:28:14;99215.13;;;24.82;59.79
39793;BME280;26080;42.264;24.536;2022-07-11T05:30:39;99222.75;;;24.52;59.21
39793;BME280;26080;42.264;24.536;2022-07-11T05:33:05;99225.63;;;24.17;62.98
39793;BME280;26080;42.264;24.536;2022-07-11T05:35:31;99219.31;;;23.58;64.81
39793;BME280;26080;42.264;24.536;2022-07-11T05:37:57;99226.16;;;23.17;67.93
39793;BME280;26080;42.264;24.536;2022-07-11T05:40:23;99216.28;;;22.99;66.67
39793;BME280;26080;42.264;24.536;2022-07-11T05:42:48;99223.19;;;22.74;68.68
39793;BME280;26080;42.264;24.536;2022-07-11T05:45:14;99226.41;;;22.78;64.34
39793;BME280;26080;42.264;24.536;2022-07-11T05:47:39;99221.16;;;22.68;62.51
39793;BME280;26080;42.264;24.536;2022-07-11T05:50:05;99218.56;;;22.76;62.80
39793;BME280;26080;42.264;24.536;2022-07-11T05:52:31;99210.78;;;22.65;64.70
39793;BME280;26080;42.264;24.536;2022-07-11T05:54:57;99223.06;;;22.76;66.69
39793;BME280;26080;42.264;24.536;2022-07-11T05:57:23;99215.06;;;22.76;59.55
39793;BME280;26080;42.264;24.536;2022-07-11T05:59:48;99234.13;;;22.81;61.60
39793;BME280;26080;42.264;24.536;2022-07-11T06:02:14;99247.63;;;22.62;60.70
39793;BME280;26080;42.264;24.536;2022-07-11T06:04:39;99243.50;;;22.67;59.41
39793;BME280;26080;42.264;24.536;2022-07-11T06:07:05;99245.25;;;22.76;60.36
39793;BME280;26080;42.264;24.536;2022-07-11T06:09:31;99249.75;;;22.76;60.67
39793;BME280;26080;42.264;24.536;2022-07-11T06:11:56;99261.19;;;22.68;60.10
39793;BME280;26080;42.264;24.536;2022-07-11T06:14:22;99260.66;;;22.65;58.65
39793;BME280;26080;42.264;24.536;2022-07-11T06:16:50;99220.50;;;22.39;61.10
39793;BME280;26080;42.264;24.536;2022-07-11T06:19:15;99255.81;;;22.51;59.20
39793;BME280;26080;42.264;24.536;2022-07-11T06:21:41;99245.00;;;22.70;61.07
39793;BME280;26080;42.264;24.536;2022-07-11T06:24:07;99221.50;;;22.56;61.17
39793;BME280;26080;42.264;24.536;2022-07-11T06:26:32;99263.50;;;22.81;61.76
39793;BME280;26080;42.264;24.536;2022-07-11T06:28:58;99251.13;;;22.80;61.50
39793;BME280;26080;42.264;24.536;2022-07-11T06:31:23;99251.50;;;22.67;59.85
39793;BME280;26080;42.264;24.536;2022-07-11T06:33:49;99258.22;;;22.71;60.38
39793;BME280;26080;42.264;24.536;2022-07-11T06:36:20;99229.94;;;22.79;59.21
39793;BME280;26080;42.264;24.536;2022-07-11T06:38:48;99251.88;;;22.72;59.55
39793;BME280;26080;42.264;24.536;2022-07-11T06:41:14;99231.19;;;22.74;61.18
39793;BME280;26080;42.264;24.536;2022-07-11T06:43:39;99252.00;;;22.98;58.58
39793;BME280;26080;42.264;24.536;2022-07-11T06:46:05;99251.09;;;22.90;57.24
39793;BME280;26080;42.264;24.536;2022-07-11T06:48:30;99246.34;;;22.84;58.99
39793;BME280;26080;42.264;24.536;2022-07-11T06:50:56;99261.38;;;22.85;59.09
39793;BME280;26080;42.264;24.536;2022-07-11T06:53:21;99259.50;;;22.95;60.07
39793;BME280;26080;42.264;24.536;2022-07-11T06:55:47;99260.09;;;23.07;57.31
39793;BME280;26080;42.264;24.536;2022-07-11T06:58:12;99252.47;;;22.94;57.65
39793;BME280;26080;42.264;24.536;2022-07-11T07:00:56;99257.59;;;23.05;60.72
39793;BME280;26080;42.264;24.536;2022-07-11T07:03:23;99262.69;;;22.98;57.35
39793;BME280;26080;42.264;24.536;2022-07-11T07:05:48;99273.06;;;23.19;60.89
39793;BME280;26080;42.264;24.536;2022-07-11T07:08:14;99241.47;;;22.97;57.84
39793;BME280;26080;42.264;24.536;2022-07-11T07:10:39;99261.31;;;23.12;55.69
39793;BME280;26080;42.264;24.536;2022-07-11T07:13:05;99257.59;;;23.05;56.96
39793;BME280;26080;42.264;24.536;2022-07-11T07:15:30;99264.13;;;23.11;55.44
39793;BME280;26080;42.264;24.536;2022-07-11T07:17:56;99257.88;;;23.02;56.60
39793;BME280;26080;42.264;24.536;2022-07-11T07:20:21;99268.63;;;23.10;56.29
39793;BME280;26080;42.264;24.536;2022-07-11T07:22:46;99275.75;;;23.19;58.37
39793;BME280;26080;42.264;24.536;2022-07-11T07:25:12;99237.50;;;23.01;55.32
39793;BME280;26080;42.264;24.536;2022-07-11T07:27:37;99268.00;;;23.16;55.92
39793;BME280;26080;42.264;24.536;2022-07-11T07:30:03;99257.88;;;23.20;55.36
39793;BME280;26080;42.264;24.536;2022-07-11T07:32:29;99260.84;;;23.34;57.32
39793;BME280;26080;42.264;24.536;2022-07-11T07:34:54;99264.34;;;23.35;56.29
39793;BME280;26080;42.264;24.536;2022-07-11T07:37:20;99258.22;;;23.43;58.04
39793;BME280;26080;42.264;24.536;2022-07-11T07:39:45;99266.56;;;23.57;55.27
39793;BME280;26080;42.264;24.536;2022-07-11T07:42:11;99263.81;;;23.49;54.73
39793;BME280;26080;42.264;24.536;2022-07-11T07:44:37;99265.56;;;23.41;52.83
39793;BME280;26080;42.264;24.536;2022-07-11T07:47:02;99270.22;;;23.39;53.17
39793;BME280;26080;42.264;24.536;2022-07-11T07:49:28;99274.31;;;23.51;53.99
39793;BME280;26080;42.264;24.536;2022-07-11T07:51:53;99263.47;;;23.52;51.61
39793;BME280;26080;42.264;24.536;2022-07-11T07:54:19;99257.81;;;23.55;50.38
39793;BME280;26080;42.264;24.536;2022-07-11T07:56:44;99269.34;;;23.56;53.04
39793;BME280;26080;42.264;24.536;2022-07-11T07:59:10;99262.97;;;23.49;52.06
39793;BME280;26080;42.264;24.536;2022-07-11T08:01:35;99263.28;;;23.46;52.84
39793;BME280;26080;42.264;24.536;2022-07-11T08:04:08;99256.81;;;23.56;56.37
39793;BME280;26080;42.264;24.536;2022-07-11T08:06:34;99269.19;;;23.75;54.13
39793;BME280;26080;42.264;24.536;2022-07-11T08:09:00;99253.19;;;23.83;53.84
39793;BME280;26080;42.264;24.536;2022-07-11T08:11:26;99253.72;;;23.87;54.34
39793;BME280;26080;42.264;24.536;2022-07-11T08:13:52;99257.59;;;23.92;54.71
39793;BME280;26080;42.264;24.536;2022-07-11T08:16:18;99238.09;;;23.74;52.55
39793;BME280;26080;42.264;24.536;2022-07-11T08:18:45;99260.16;;;24.02;47.17
39793;BME280;26080;42.264;24.536;2022-07-11T08:21:10;99248.19;;;24.14;45.78
39793;BME280;26080;42.264;24.536;2022-07-11T08:23:36;99248.28;;;24.31;50.13
39793;BME280;26080;42.264;24.536;2022-07-11T08:26:02;99249.69;;;24.17;48.82
39793;BME280;26080;42.264;24.536;2022-07-11T08:28:27;99252.81;;;24.30;46.41
39793;BME280;26080;42.264;24.536;2022-07-11T08:30:53;99237.03;;;24.27;45.20
39793;BME280;26080;42.264;24.536;2022-07-11T08:33:19;99230.72;;;24.36;47.64
39793;BME280;26080;42.264;24.536;2022-07-11T08:35:44;99235.50;;;24.59;48.41
39793;BME280;26080;42.264;24.536;2022-07-11T08:38:11;99226.63;;;24.24;48.95
39793;BME280;26080;42.264;24.536;2022-07-11T08:40:37;99235.44;;;23.74;47.79
39793;BME280;26080;42.264;24.536;2022-07-11T08:43:05;99214.47;;;23.61;50.83
39793;BME280;26080;42.264;24.536;2022-07-11T08:45:38;99231.69;;;24.27;47.47
39793;BME280;26080;42.264;24.536;2022-07-11T08:48:05;99219.75;;;24.13;45.67
39793;BME280;26080;42.264;24.536;2022-07-11T08:50:32;99227.72;;;24.31;46.56
39793;BME280;26080;42.264;24.536;2022-07-11T08:52:58;99205.13;;;24.34;50.07
39793;BME280;26080;42.264;24.536;2022-07-11T08:55:24;99232.78;;;24.42;48.38
39793;BME280;26080;42.264;24.536;2022-07-11T08:57:49;99228.59;;;24.48;41.96
39793;BME280;26080;42.264;24.536;2022-07-11T09:00:15;99211.38;;;24.50;40.47
39793;BME280;26080;42.264;24.536;2022-07-11T09:02:42;99231.16;;;24.66;39.74
39793;BME280;26080;42.264;24.536;2022-07-11T09:05:09;99244.16;;;24.52;39.57
39793;BME280;26080;42.264;24.536;2022-07-11T09:07:41;99214.06;;;24.67;40.01
39793;BME280;26080;42.264;24.536;2022-07-11T09:10:07;99227.13;;;24.54;40.07
39793;BME280;26080;42.264;24.536;2022-07-11T09:12:33;99230.00;;;24.68;38.41
39793;BME280;26080;42.264;24.536;2022-07-11T09:14:59;99238.91;;;24.85;36.19
39793;BME280;26080;42.264;24.536;2022-07-11T09:17:27;99225.84;;;24.90;35.31
39793;BME280;26080;42.264;24.536;2022-07-11T09:19:53;99233.72;;;24.84;33.29
39793;BME280;26080;42.264;24.536;2022-07-11T09:22:18;99225.66;;;24.75;35.08
39793;BME280;26080;42.264;24.536;2022-07-11T09:25:08;99224.84;;;24.91;35.19
39793;BME280;26080;42.264;24.536;2022-07-11T09:27:54;99222.34;;;24.81;37.04
39793;BME280;26080;42.264;24.536;2022-07-11T09:30:25;99217.63;;;24.67;36.80
39793;BME280;26080;42.264;24.536;2022-07-11T09:35:24;99217.63;;;24.92;34.73
39793;BME280;26080;42.264;24.536;2022-07-11T09:37:51;99210.44;;;24.92;33.56
39793;BME280;26080;42.264;24.536;2022-07-11T09:40:17;99203.06;;;24.94;30.01
39793;BME280;26080;42.264;24.536;2022-07-11T09:42:50;99207.13;;;25.06;30.50
39793;BME280;26080;42.264;24.536;2022-07-11T09:45:17;99207.31;;;25.13;30.95
39793;BME280;26080;42.264;24.536;2022-07-11T09:47:45;99209.44;;;24.85;29.85
39793;BME280;26080;42.264;24.536;2022-07-11T09:50:11;99207.44;;;24.87;31.75
39793;BME280;26080;42.264;24.536;2022-07-11T09:52:38;99211.63;;;24.98;32.91
39793;BME280;26080;42.264;24.536;2022-07-11T09:55:04;99215.63;;;24.94;31.83
39793;BME280;26080;42.264;24.536;2022-07-11T09:57:34;99225.16;;;24.88;30.00
39793;BME280;26080;42.264;24.536;2022-07-11T10:00:01;99195.69;;;24.80;30.85
39793;BME280;26080;42.264;24.536;2022-07-11T10:02:31;99193.34;;;24.93;33.84
39793;BME280;26080;42.264;24.536;2022-07-11T10:04:58;99219.84;;;25.29;36.10
39793;BME280;26080;42.264;24.536;2022-07-11T10:07:24;99201.94;;;25.29;33.75
39793;BME280;26080;42.264;24.536;2022-07-11T10:09:50;99214.16;;;25.40;35.12
39793;BME280;26080;42.264;24.536;2022-07-11T10:12:16;99207.63;;;25.34;32.31
39793;BME280;26080;42.264;24.536;2022-07-11T10:14:42;99217.84;;;25.39;35.11
39793;BME280;26080;42.264;24.536;2022-07-11T10:20:35;99210.63;;;25.48;33.44
39793;BME280;26080;42.264;24.536;2022-07-11T10:24:06;99219.97;;;25.60;36.06
39793;BME280;26080;42.264;24.536;2022-07-11T10:26:25;99216.84;;;25.40;34.20
39793;BME280;26080;42.264;24.536;2022-07-11T10:29:05;99204.59;;;25.54;34.13
39793;BME280;26080;42.264;24.536;2022-07-11T10:31:32;99201.41;;;25.42;33.26
39793;BME280;26080;42.264;24.536;2022-07-11T10:34:04;99204.09;;;25.50;37.65
39793;BME280;26080;42.264;24.536;2022-07-11T10:36:31;99212.94;;;25.59;35.21
39793;BME280;26080;42.264;24.536;2022-07-11T10:39:17;99207.28;;;25.46;34.11
39793;BME280;26080;42.264;24.536;2022-07-11T10:41:44;99218.66;;;25.64;34.32
39793;BME280;26080;42.264;24.536;2022-07-11T10:44:11;99220.16;;;25.75;35.05
39793;BME280;26080;42.264;24.536;2022-07-11T10:46:36;99217.81;;;25.80;35.71
39793;BME280;26080;42.264;24.536;2022-07-11T10:49:15;99211.28;;;25.74;36.08
39793;BME280;26080;42.264;24.536;2022-07-11T10:56:56;99218.84;;;25.30;33.84
39793;BME280;26080;42.264;24.536;2022-07-11T10:59:27;99213.97;;;25.33;34.21
39793;BME280;26080;42.264;24.536;2022-07-11T11:02:02;99225.88;;;25.55;32.34
39793;BME280;26080;42.264;24.536;2022-07-11T11:07:37;99212.97;;;25.43;34.75
39793;BME280;26080;42.264;24.536;2022-07-11T11:16:01;99223.53;;;25.68;31.74
39793;BME280;26080;42.264;24.536;2022-07-11T11:18:34;99199.88;;;25.64;33.04
39793;BME280;26080;42.264;24.536;2022-07-11T11:23:39;99193.50;;;25.65;33.36
39793;BME280;26080;42.264;24.536;2022-07-11T11:26:16;99176.59;;;25.56;32.29
39793;BME280;26080;42.264;24.536;2022-07-11T11:28:56;99209.94;;;25.78;31.83
39793;BME280;26080;42.264;24.536;2022-07-11T11:31:22;99210.72;;;25.87;32.41
39793;BME280;26080;42.264;24.536;2022-07-11T11:33:48;99215.44;;;25.77;31.91
39793;BME280;26080;42.264;24.536;2022-07-11T11:36:17;99206.56;;;25.68;31.57
39793;BME280;26080;42.264;24.536;2022-07-11T11:38:44;99211.09;;;25.76;32.10
39793;BME280;26080;42.264;24.536;2022-07-11T11:41:10;99207.09;;;25.63;32.25
39793;BME280;26080;42.264;24.536;2022-07-11T11:43:43;99197.88;;;25.66;30.72
39793;BME280;26080;42.264;24.536;2022-07-11T11:46:12;99216.81;;;25.64;30.51
39793;BME280;26080;42.264;24.536;2022-07-11T11:48:38;99211.91;;;25.84;32.50
39793;BME280;26080;42.264;24.536;2022-07-11T11:51:08;99221.28;;;25.96;33.36
39793;BME280;26080;42.264;24.536;2022-07-11T11:53:47;99210.59;;;25.80;30.61
39793;BME280;26080;42.264;24.536;2022-07-11T11:58:49;99216.09;;;25.87;30.48
39793;BME280;26080;42.264;24.536;2022-07-11T12:01:25;99218.31;;;25.75;28.94
39793;BME280;26080;42.264;24.536;2022-07-11T12:03:59;99212.44;;;25.80;27.78
39793;BME280;26080;42.264;24.536;2022-07-11T12:06:31;99207.94;;;25.72;27.40
39793;BME280;26080;42.264;24.536;2022-07-11T12:12:20;99213.09;;;25.82;27.99
39793;BME280;26080;42.264;24.536;2022-07-11T12:15:06;99206.00;;;25.97;26.49
39793;BME280;26080;42.264;24.536;2022-07-11T12:17:33;99203.69;;;25.94;26.28
39793;BME280;26080;42.264;24.536;2022-07-11T12:20:00;99201.31;;;25.99;27.44
39793;BME280;26080;42.264;24.536;2022-07-11T12:22:26;99199.34;;;25.77;28.14
39793;BME280;26080;42.264;24.536;2022-07-11T12:24:53;99205.38;;;25.87;28.24
39793;BME280;26080;42.264;24.536;2022-07-11T12:27:22;99210.00;;;26.09;28.11
39793;BME280;26080;42.264;24.536;2022-07-11T12:29:48;99204.88;;;25.91;28.83
39793;BME280;26080;42.264;24.536;2022-07-11T12:32:19;99191.94;;;25.87;30.52
39793;BME280;26080;42.264;24.536;2022-07-11T12:34:46;99168.72;;;25.71;31.02
39793;BME280;26080;42.264;24.536;2022-07-11T12:37:18;99197.66;;;25.92;28.98
39793;BME280;26080;42.264;24.536;2022-07-11T12:39:51;99208.69;;;26.05;30.95
39793;BME280;26080;42.264;24.536;2022-07-11T12:42:22;99211.38;;;25.97;30.31
39793;BME280;26080;42.264;24.536;2022-07-11T12:45:05;99201.47;;;26.06;30.66
39793;BME280;26080;42.264;24.536;2022-07-11T12:47:36;99193.25;;;25.99;29.65
39793;BME280;26080;42.264;24.536;2022-07-11T12:50:20;99203.50;;;25.95;29.39
39793;BME280;26080;42.264;24.536;2022-07-11T12:52:49;99185.84;;;26.09;27.26
39793;BME280;26080;42.264;24.536;2022-07-11T12:55:31;99179.66;;;26.01;29.19
39793;BME280;26080;42.264;24.536;2022-07-11T13:00:28;99194.56;;;26.03;28.40
39793;BME280;26080;42.264;24.536;2022-07-11T13:02:54;99183.50;;;26.06;31.17
39793;BME280;26080;42.264;24.536;2022-07-11T13:05:19;99195.91;;;26.07;28.71
39793;BME280;26080;42.264;24.536;2022-07-11T13:07:45;99179.81;;;26.07;28.79
39793;BME280;26080;42.264;24.536;2022-07-11T13:10:29;99195.88;;;26.15;29.20
39793;BME280;26080;42.264;24.536;2022-07-11T13:13:13;99188.69;;;26.08;32.12
39793;BME280;26080;42.264;24.536;2022-07-11T13:15:39;99192.03;;;26.18;32.59
39793;BME280;26080;42.264;24.536;2022-07-11T13:18:05;99189.34;;;26.18;31.23
39793;BME280;26080;42.264;24.536;2022-07-11T13:20:31;99199.47;;;26.31;30.27